createdAt,value
2018-07-15T00:00:09.496Z,528.70
2018-07-15T00:02:36.691Z,531.53
2018-07-15T00:05:04.244Z,529.43
2018-07-15T00:07:31.425Z,531.07
2018-07-15T00:09:58.628Z,533.27
2018-07-15T00:12:25.944Z,529.00
2018-07-15T00:14:53.129Z,525.60
2018-07-15T00:17:20.318Z,525.87
2018-07-15T00:19:47.517Z,527.10
2018-07-15T00:22:14.697Z,527.27
2018-07-15T00:24:41.902Z,525.50
2018-07-15T00:27:09.117Z,525.50
2018-07-15T00:29:36.328Z,526.33
2018-07-15T00:32:03.517Z,526.37
2018-07-15T00:34:30.702Z,528.17
2018-07-15T00:36:57.923Z,525.27
2018-07-15T00:39:25.113Z,526.87
2018-07-15T00:41:52.505Z,526.73
2018-07-15T00:44:19.693Z,523.57
2018-07-15T00:46:46.868Z,525.30
2018-07-15T00:49:14.064Z,525.47
2018-07-15T00:51:41.564Z,520.73
2018-07-15T00:54:08.757Z,521.07
2018-07-15T00:56:35.950Z,526.20
2018-07-15T00:59:03.151Z,524.47
2018-07-15T01:01:30.344Z,522.47
2018-07-15T01:03:57.529Z,521.00
2018-07-15T01:06:24.713Z,525.77
2018-07-15T01:08:51.885Z,526.23
2018-07-15T01:11:19.152Z,518.47
2018-07-15T01:13:46.340Z,526.33
2018-07-15T01:16:13.516Z,521.77
2018-07-15T01:18:40.712Z,524.83
2018-07-15T01:21:07.897Z,525.27
2018-07-15T01:23:35.125Z,522.70
2018-07-15T01:26:02.320Z,521.57
2018-07-15T01:28:29.492Z,519.70
2018-07-15T01:30:56.688Z,518.80
2018-07-15T01:33:23.921Z,531.50
2018-07-15T01:35:51.157Z,521.67
2018-07-15T01:38:18.389Z,522.97
2018-07-15T01:40:45.643Z,521.20
2018-07-15T01:43:12.897Z,523.60
2018-07-15T01:45:40.138Z,524.20
2018-07-15T01:48:07.371Z,525.40
2018-07-15T01:50:34.693Z,521.03
2018-07-15T01:53:01.921Z,518.70
2018-07-15T01:55:29.169Z,518.40
2018-07-15T01:57:56.417Z,519.07
2018-07-15T02:00:23.701Z,519.90
2018-07-15T02:02:50.950Z,519.37
2018-07-15T02:05:18.177Z,518.80
2018-07-15T02:07:45.422Z,519.80
2018-07-15T02:10:12.683Z,522.40
2018-07-15T02:12:39.926Z,519.27
2018-07-15T02:15:07.222Z,518.47
2018-07-15T02:17:34.477Z,524.10
2018-07-15T02:20:01.737Z,520.67
2018-07-15T02:22:29.018Z,523.50
2018-07-15T02:24:56.257Z,519.77
2018-07-15T02:27:23.502Z,518.63
2018-07-15T02:29:50.821Z,518.50
2018-07-15T02:32:18.078Z,518.17
2018-07-15T02:34:45.319Z,520.53
2018-07-15T02:37:12.559Z,520.37
2018-07-15T02:39:39.796Z,518.37
2018-07-15T02:42:07.056Z,518.17
2018-07-15T02:44:34.326Z,521.93
2018-07-15T02:47:01.621Z,521.67
2018-07-15T02:49:28.856Z,516.60
2018-07-15T02:51:56.097Z,519.03
2018-07-15T02:54:23.362Z,521.20
2018-07-15T02:56:50.690Z,518.63
2018-07-15T02:59:17.925Z,517.43
2018-07-15T03:01:45.293Z,521.23
2018-07-15T03:04:12.528Z,516.83
2018-07-15T03:06:39.766Z,517.17
2018-07-15T03:09:08.519Z,517.57
2018-07-15T03:11:35.972Z,517.57
2018-07-15T03:14:03.388Z,522.93
2018-07-15T03:16:30.649Z,518.83
2018-07-15T03:18:57.881Z,514.63
2018-07-15T03:21:25.137Z,517.80
2018-07-15T03:23:52.398Z,517.70
2018-07-15T03:26:19.664Z,516.60
2018-07-15T03:28:46.906Z,514.37
2018-07-15T03:31:14.162Z,515.90
2018-07-15T03:33:42.285Z,512.50
2018-07-15T03:36:09.614Z,510.53
2018-07-15T03:38:36.881Z,510.57
2018-07-15T03:41:04.132Z,509.40
2018-07-15T03:43:31.390Z,512.23
2018-07-15T03:45:58.642Z,512.97
2018-07-15T03:48:25.864Z,512.33
2018-07-15T03:50:53.116Z,513.47
2018-07-15T03:53:20.346Z,510.10
2018-07-15T03:55:47.580Z,512.50
2018-07-15T03:58:14.804Z,510.67
2018-07-15T04:00:42.046Z,513.17
2018-07-15T04:03:09.298Z,512.37
2018-07-15T04:05:36.528Z,511.80
2018-07-15T04:08:03.781Z,514.07
2018-07-15T04:10:31.028Z,517.73
2018-07-15T04:12:58.280Z,510.63
2018-07-15T04:15:25.504Z,509.47
2018-07-15T04:18:02.190Z,514.43
2018-07-15T04:20:29.490Z,511.23
2018-07-15T04:22:56.730Z,510.60
2018-07-15T04:25:23.967Z,512.23
2018-07-15T04:27:51.194Z,519.40
2018-07-15T04:30:18.485Z,513.80
2018-07-15T04:32:45.717Z,512.60
2018-07-15T04:35:12.961Z,512.77
2018-07-15T04:37:40.197Z,511.27
2018-07-15T04:40:07.454Z,511.40
2018-07-15T04:42:34.689Z,511.53
2018-07-15T04:45:02.017Z,514.30
2018-07-15T04:47:29.197Z,513.17
2018-07-15T04:49:56.428Z,513.43
2018-07-15T04:52:23.669Z,514.63
2018-07-15T04:54:50.909Z,513.27
2018-07-15T04:57:18.133Z,512.87
2018-07-15T04:59:45.374Z,515.47
2018-07-15T05:02:12.597Z,511.77
2018-07-15T05:04:39.837Z,512.43
2018-07-15T05:07:07.133Z,512.73
2018-07-15T05:09:34.333Z,516.40
2018-07-15T05:12:01.569Z,514.13
2018-07-15T05:14:28.805Z,516.10
2018-07-15T05:16:56.042Z,514.33
2018-07-15T05:19:23.273Z,516.77
2018-07-15T05:21:50.700Z,514.20
2018-07-15T05:24:17.932Z,515.87
2018-07-15T05:26:45.206Z,515.17
2018-07-15T05:29:12.461Z,515.00
2018-07-15T05:31:39.694Z,518.87
2018-07-15T05:34:06.989Z,512.53
2018-07-15T05:36:34.232Z,514.50
2018-07-15T05:39:01.470Z,514.30
2018-07-15T05:41:28.857Z,522.80
2018-07-15T05:43:56.102Z,521.03
2018-07-15T05:46:23.347Z,515.30
2018-07-15T05:48:50.577Z,518.37
2018-07-15T05:51:17.822Z,514.07
2018-07-15T05:53:45.057Z,515.10
2018-07-15T05:56:12.317Z,515.97
2018-07-15T05:58:39.581Z,516.83
2018-07-15T06:01:07.133Z,520.57
2018-07-15T06:03:34.510Z,524.03
2018-07-15T06:06:01.624Z,525.87
2018-07-15T06:08:28.856Z,524.53
2018-07-15T06:10:56.098Z,523.47
2018-07-15T06:13:23.354Z,523.33
2018-07-15T06:15:50.605Z,523.33
2018-07-15T06:18:17.898Z,526.37
2018-07-15T06:20:45.199Z,526.23
2018-07-15T06:23:12.550Z,528.17
2018-07-15T06:25:39.941Z,532.40
2018-07-15T06:28:07.283Z,529.30
2018-07-15T06:30:34.558Z,536.03
2018-07-15T06:33:01.947Z,533.57
2018-07-15T06:35:29.272Z,533.37
2018-07-15T06:37:56.521Z,537.07
2018-07-15T06:40:23.806Z,533.83
2018-07-15T06:42:51.042Z,537.37
2018-07-15T06:45:18.313Z,540.73
2018-07-15T06:47:45.581Z,537.27
2018-07-15T06:50:12.934Z,546.97
2018-07-15T06:52:40.182Z,540.53
2018-07-15T06:55:07.415Z,545.10
2018-07-15T06:57:34.654Z,541.93
2018-07-15T07:00:02.079Z,550.00
2018-07-15T07:02:29.320Z,558.37
2018-07-15T07:04:56.569Z,567.87
2018-07-15T07:07:23.936Z,570.97
2018-07-15T07:09:51.063Z,579.33
2018-07-15T07:12:18.315Z,597.43
2018-07-15T07:14:45.554Z,593.13
2018-07-15T07:17:12.793Z,638.17
2018-07-15T07:19:40.042Z,667.03
2018-07-15T07:22:07.321Z,645.40
2018-07-15T07:24:34.550Z,662.47
2018-07-15T07:27:01.810Z,666.23
2018-07-15T07:29:29.092Z,668.67
2018-07-15T07:31:56.336Z,685.90
2018-07-15T07:34:23.577Z,652.27
2018-07-15T07:36:50.993Z,628.67
2018-07-15T07:39:18.239Z,635.73
2018-07-15T07:41:45.492Z,621.33
2018-07-15T07:44:12.816Z,598.87
2018-07-15T07:46:40.098Z,600.50
2018-07-15T07:49:07.416Z,628.47
2018-07-15T07:51:34.649Z,672.17
2018-07-15T07:54:01.887Z,667.30
2018-07-15T07:56:29.115Z,671.67
2018-07-15T07:58:56.365Z,672.57
2018-07-15T08:01:23.624Z,678.93
2018-07-15T08:03:50.878Z,681.27
2018-07-15T08:06:18.180Z,680.40
2018-07-15T08:08:45.447Z,686.70
2018-07-15T08:11:12.792Z,694.60
2018-07-15T08:13:40.078Z,693.57
2018-07-15T08:16:07.371Z,702.10
2018-07-15T08:18:34.742Z,674.67
2018-07-15T08:21:02.000Z,676.50
2018-07-15T08:23:29.243Z,660.37
2018-07-15T08:25:56.597Z,674.67
2018-07-15T08:28:24.210Z,638.37
2018-07-15T08:31:03.436Z,614.17
2018-07-15T08:33:30.693Z,605.63
2018-07-15T08:35:57.969Z,603.13
2018-07-15T08:38:25.213Z,602.33
2018-07-15T08:40:52.488Z,623.23
2018-07-15T08:43:19.814Z,587.53
2018-07-15T08:45:47.085Z,597.40
2018-07-15T08:48:14.441Z,591.30
2018-07-15T08:50:41.700Z,598.67
2018-07-15T08:53:08.995Z,599.40
2018-07-15T08:55:36.275Z,642.93
2018-07-15T08:58:04.034Z,660.60
2018-07-15T09:00:31.297Z,695.93
2018-07-15T09:02:58.541Z,721.97
2018-07-15T09:05:25.821Z,734.63
2018-07-15T09:07:53.102Z,729.90
2018-07-15T09:10:20.373Z,737.17
2018-07-15T09:12:47.818Z,745.33
2018-07-15T09:15:15.071Z,732.57
2018-07-15T09:17:42.340Z,765.07
2018-07-15T09:20:09.594Z,801.80
2018-07-15T09:22:36.849Z,798.63
2018-07-15T09:25:04.124Z,810.63
2018-07-15T09:27:31.377Z,794.10
2018-07-15T09:29:58.689Z,820.97
2018-07-15T09:32:25.958Z,784.37
2018-07-15T09:34:53.225Z,812.73
2018-07-15T09:37:20.501Z,815.97
2018-07-15T09:39:47.790Z,872.10
2018-07-15T09:42:15.062Z,848.67
2018-07-15T09:44:42.412Z,850.07
2018-07-15T09:47:09.662Z,886.47
2018-07-15T09:49:36.922Z,880.70
2018-07-15T09:52:04.201Z,905.23
2018-07-15T09:54:31.479Z,880.33
2018-07-15T09:56:58.734Z,886.20
2018-07-15T09:59:26.019Z,912.87
2018-07-15T10:01:53.299Z,874.10
2018-07-15T10:04:20.566Z,878.13
2018-07-15T10:06:47.826Z,875.47
2018-07-15T10:09:15.074Z,879.77
2018-07-15T10:11:42.317Z,872.03
2018-07-15T10:14:09.664Z,872.07
2018-07-15T10:16:36.909Z,915.20
2018-07-15T10:19:04.306Z,883.63
2018-07-15T10:21:31.570Z,866.23
2018-07-15T10:23:58.821Z,883.67
2018-07-15T10:26:26.097Z,881.23
2018-07-15T10:28:53.353Z,916.27
2018-07-15T10:31:20.613Z,896.60
2018-07-15T10:33:47.858Z,887.43
2018-07-15T10:36:15.157Z,873.93
2018-07-15T10:38:42.411Z,891.40
2018-07-15T10:41:09.673Z,878.77
2018-07-15T10:43:37.057Z,851.20
2018-07-15T10:46:04.329Z,899.87
2018-07-15T10:48:31.589Z,859.73
2018-07-15T10:50:58.933Z,854.43
2018-07-15T10:53:26.205Z,844.20
2018-07-15T10:55:53.501Z,811.43
2018-07-15T10:58:20.740Z,810.70
2018-07-15T11:00:48.164Z,781.00
2018-07-15T11:03:15.414Z,753.87
2018-07-15T11:05:42.713Z,777.50
2018-07-15T11:08:09.966Z,766.87
2018-07-15T11:10:37.211Z,766.73
2018-07-15T11:13:04.505Z,733.43
2018-07-15T11:15:31.758Z,754.27
2018-07-15T11:17:59.004Z,713.30
2018-07-15T11:20:26.266Z,721.03
2018-07-15T11:22:53.602Z,707.50
2018-07-15T11:25:20.957Z,696.97
2018-07-15T11:27:48.229Z,689.30
2018-07-15T11:30:15.469Z,675.60
2018-07-15T11:32:42.721Z,695.03
2018-07-15T11:35:09.965Z,668.33
2018-07-15T11:37:37.215Z,690.83
2018-07-15T11:40:04.529Z,660.60
2018-07-15T11:42:31.789Z,681.97
2018-07-15T11:44:59.070Z,648.17
2018-07-15T11:47:26.345Z,646.27
2018-07-15T11:49:53.602Z,646.43
2018-07-15T11:52:20.922Z,616.90
2018-07-15T11:54:48.170Z,597.67
2018-07-15T11:57:15.460Z,595.77
2018-07-15T11:59:42.705Z,600.63
2018-07-15T12:02:10.408Z,585.60
2018-07-15T12:04:37.812Z,593.40
2018-07-15T12:07:05.110Z,579.07
2018-07-15T12:09:32.544Z,585.00
2018-07-15T12:12:00.101Z,580.10
2018-07-15T12:14:27.370Z,582.60
2018-07-15T12:16:54.665Z,588.00
2018-07-15T12:19:21.946Z,577.80
2018-07-15T12:21:49.190Z,573.53
2018-07-15T12:24:17.077Z,578.00
2018-07-15T12:26:44.696Z,571.63
2018-07-15T12:29:11.979Z,573.97
2018-07-15T12:31:39.268Z,573.07
2018-07-15T12:34:07.550Z,569.80
2018-07-15T12:36:36.758Z,573.70
2018-07-15T12:39:07.212Z,566.70
2018-07-15T12:41:37.066Z,564.13
2018-07-15T12:44:06.582Z,571.73
2018-07-15T12:46:33.830Z,570.83
2018-07-15T12:49:01.165Z,561.57
2018-07-15T12:51:28.646Z,567.00
2018-07-15T12:53:55.946Z,560.60
2018-07-15T12:56:23.201Z,557.17
2018-07-15T12:58:50.524Z,558.10
2018-07-15T13:01:17.779Z,554.30
2018-07-15T13:03:45.047Z,548.07
2018-07-15T13:06:12.305Z,551.50
2018-07-15T13:08:39.603Z,546.43
2018-07-15T13:11:06.923Z,548.90
2018-07-15T13:13:34.217Z,549.53
2018-07-15T13:16:01.458Z,556.07
2018-07-15T13:18:28.762Z,565.80
2018-07-15T13:20:55.991Z,565.73
2018-07-15T13:23:23.241Z,577.10
2018-07-15T13:25:50.525Z,604.67
2018-07-15T13:28:17.778Z,600.03
2018-07-15T13:30:45.049Z,602.73
2018-07-15T13:33:12.309Z,629.07
2018-07-15T13:35:39.606Z,605.80
2018-07-15T13:38:06.966Z,618.40
2018-07-15T13:40:34.262Z,637.30
2018-07-15T13:43:01.505Z,695.57
2018-07-15T13:45:28.777Z,714.17
2018-07-15T13:47:56.194Z,731.50
2018-07-15T13:50:23.534Z,722.90
2018-07-15T13:52:50.796Z,704.87
2018-07-15T13:55:18.137Z,710.50
2018-07-15T13:57:45.417Z,728.73
2018-07-15T14:00:12.706Z,695.57
2018-07-15T14:02:39.966Z,658.83
2018-07-15T14:05:07.525Z,643.53
2018-07-15T14:07:34.757Z,616.53
2018-07-15T14:10:02.153Z,579.93
2018-07-15T14:12:29.517Z,577.70
2018-07-15T14:14:56.902Z,582.00
2018-07-15T14:17:24.166Z,578.13
2018-07-15T14:19:51.624Z,576.33
2018-07-15T14:22:18.878Z,577.27
2018-07-15T14:24:46.116Z,572.13
2018-07-15T14:27:13.378Z,570.77
2018-07-15T14:29:40.649Z,572.47
2018-07-15T14:32:08.008Z,569.90
2018-07-15T14:34:35.267Z,572.60
2018-07-15T14:37:02.554Z,576.80
2018-07-15T14:39:33.420Z,574.77
2018-07-15T14:42:00.690Z,571.40
2018-07-15T14:44:27.977Z,571.83
2018-07-15T14:46:55.339Z,573.20
2018-07-15T14:49:22.585Z,572.37
2018-07-15T14:51:49.848Z,584.40
2018-07-15T14:54:17.207Z,574.47
2018-07-15T14:56:45.142Z,573.73
2018-07-15T14:59:12.404Z,585.37
2018-07-15T15:01:39.754Z,637.60
2018-07-15T15:04:07.009Z,620.37
2018-07-15T15:06:34.264Z,668.13
2018-07-15T15:09:01.720Z,681.40
2018-07-15T15:11:29.040Z,684.83
2018-07-15T15:13:56.340Z,671.13
2018-07-15T15:16:23.732Z,683.03
2018-07-15T15:18:50.981Z,664.20
2018-07-15T15:21:18.256Z,639.97
2018-07-15T15:23:45.511Z,642.57
2018-07-15T15:26:12.774Z,639.73
2018-07-15T15:28:40.221Z,633.47
2018-07-15T15:31:07.617Z,661.73
2018-07-15T15:33:34.917Z,638.97
2018-07-15T15:36:02.240Z,632.93
2018-07-15T15:38:29.930Z,632.30
2018-07-15T15:40:57.163Z,638.90
2018-07-15T15:43:24.421Z,641.93
2018-07-15T15:45:51.664Z,612.17
2018-07-15T15:48:18.924Z,609.07
2018-07-15T15:50:46.161Z,589.50
2018-07-15T15:53:13.560Z,579.43
2018-07-15T15:55:40.823Z,577.63
2018-07-15T15:58:08.130Z,576.63
2018-07-15T16:00:35.338Z,571.07
2018-07-15T16:03:02.572Z,571.87
2018-07-15T16:05:29.926Z,569.53
2018-07-15T16:07:57.184Z,577.17
2018-07-15T16:10:24.469Z,570.37
2018-07-15T16:12:51.733Z,577.63
2018-07-15T16:15:18.989Z,573.40
2018-07-15T16:17:46.246Z,565.63
2018-07-15T16:20:13.527Z,570.60
2018-07-15T16:22:40.886Z,568.47
2018-07-15T16:25:08.138Z,565.77
2018-07-15T16:30:28.904Z,565.73
2018-07-15T16:32:56.154Z,565.43
2018-07-15T16:35:23.646Z,568.37
2018-07-15T16:37:51.029Z,563.37
2018-07-15T16:40:18.302Z,564.30
2018-07-15T16:42:45.642Z,562.83
2018-07-15T16:45:12.932Z,561.90
2018-07-15T16:47:40.181Z,558.13
2018-07-15T16:50:07.547Z,560.97
2018-07-15T16:52:34.816Z,562.40
2018-07-15T16:55:02.156Z,560.90
2018-07-15T16:57:29.401Z,561.67
2018-07-15T16:59:57.121Z,557.03
2018-07-15T17:02:24.376Z,566.60
2018-07-15T17:04:51.633Z,556.30
2018-07-15T17:07:18.895Z,553.77
2018-07-15T17:09:46.289Z,555.23
2018-07-15T17:12:13.650Z,558.30
2018-07-15T17:14:40.913Z,556.80
2018-07-15T17:17:08.285Z,550.60
2018-07-15T17:19:35.550Z,551.97
2018-07-15T17:22:02.806Z,551.23
2018-07-15T17:24:30.065Z,552.40
2018-07-15T17:26:57.324Z,553.80
2018-07-15T17:29:24.583Z,556.63
2018-07-15T17:31:52.060Z,556.47
2018-07-15T17:34:19.319Z,558.97
2018-07-15T17:36:46.594Z,552.17
2018-07-15T17:39:13.845Z,553.27
2018-07-15T17:41:41.120Z,554.60
2018-07-15T17:44:08.365Z,551.27
2018-07-15T17:46:35.598Z,549.20
2018-07-15T17:49:02.842Z,550.87
2018-07-15T17:51:30.102Z,549.53
2018-07-15T17:53:58.232Z,551.87
2018-07-15T17:56:25.492Z,547.20
2018-07-15T17:58:52.797Z,546.03
2018-07-15T18:01:20.037Z,546.67
2018-07-15T18:03:47.297Z,549.17
2018-07-15T18:06:14.536Z,546.77
2018-07-15T18:08:41.941Z,545.13
2018-07-15T18:11:09.250Z,547.77
2018-07-15T18:13:36.503Z,543.60
2018-07-15T18:16:03.922Z,542.43
2018-07-15T18:18:31.326Z,542.33
2018-07-15T18:20:58.633Z,541.17
2018-07-15T18:23:25.870Z,542.43
2018-07-15T18:25:53.113Z,542.97
2018-07-15T18:28:20.590Z,540.33
2018-07-15T18:30:47.838Z,545.03
2018-07-15T18:33:15.100Z,538.80
2018-07-15T18:35:42.325Z,545.60
2018-07-15T18:38:09.575Z,539.83
2018-07-15T18:40:36.818Z,537.90
2018-07-15T18:43:04.115Z,536.60
2018-07-15T18:45:31.352Z,541.57
2018-07-15T18:47:58.581Z,542.93
2018-07-15T18:50:25.822Z,539.80
2018-07-15T18:52:53.161Z,534.63
2018-07-15T18:55:20.712Z,533.83
2018-07-15T18:57:47.959Z,540.03
2018-07-15T19:00:15.277Z,534.87
2018-07-15T19:02:42.510Z,533.27
2018-07-15T19:05:09.810Z,531.40
2018-07-15T19:07:37.064Z,532.70
2018-07-15T19:10:04.331Z,532.30
2018-07-15T19:12:31.653Z,533.67
2018-07-15T19:14:58.852Z,533.53
2018-07-15T19:17:26.085Z,534.00
2018-07-15T19:19:53.313Z,528.67
2018-07-15T19:22:20.735Z,529.43
2018-07-15T19:24:48.066Z,538.23
2018-07-15T19:27:15.297Z,527.03
2018-07-15T19:29:42.547Z,532.43
2018-07-15T19:32:09.787Z,525.97
2018-07-15T19:34:37.141Z,532.87
2018-07-15T19:37:04.614Z,529.37
2018-07-15T19:39:31.870Z,528.00
2018-07-15T19:41:59.125Z,528.10
2018-07-15T19:44:26.404Z,523.53
2018-07-15T19:46:53.641Z,519.90
2018-07-15T19:49:20.885Z,520.37
2018-07-15T19:51:48.174Z,518.43
2018-07-15T19:54:15.454Z,519.33
2018-07-15T19:56:42.705Z,522.43
2018-07-15T19:59:09.998Z,519.40
2018-07-15T20:01:37.238Z,519.53
2018-07-15T20:04:04.685Z,519.30
2018-07-15T20:06:31.962Z,515.73
2018-07-15T20:08:59.245Z,519.93
2018-07-15T20:11:26.508Z,517.30
2018-07-15T20:13:53.785Z,521.20
2018-07-15T20:16:21.101Z,515.40
2018-07-15T20:18:48.349Z,517.57
2018-07-15T20:21:15.647Z,517.37
2018-07-15T20:23:42.881Z,518.60
2018-07-15T20:26:10.125Z,522.67
2018-07-15T20:28:37.358Z,515.93
2018-07-15T20:31:04.622Z,512.53
2018-07-15T20:33:31.878Z,519.10
2018-07-15T20:35:59.114Z,516.70
2018-07-15T20:38:26.482Z,512.47
2018-07-15T20:40:53.714Z,514.63
2018-07-15T20:43:20.990Z,516.93
2018-07-15T20:45:48.245Z,518.50
2018-07-15T20:48:15.472Z,515.77
2018-07-15T20:50:42.708Z,515.43
2018-07-15T20:53:09.986Z,514.40
2018-07-15T20:55:37.386Z,516.97
2018-07-15T20:58:04.657Z,515.90
2018-07-15T21:00:31.910Z,521.27
2018-07-15T21:02:59.273Z,516.60
2018-07-15T21:05:26.551Z,516.50
2018-07-15T21:07:53.801Z,513.97
2018-07-15T21:10:21.074Z,517.73
2018-07-15T21:12:48.329Z,517.07
2018-07-15T21:15:15.598Z,516.70
2018-07-15T21:17:42.831Z,520.80
2018-07-15T21:20:10.080Z,514.60
2018-07-15T21:22:37.316Z,516.00
2018-07-15T21:25:04.573Z,513.87
2018-07-15T21:27:31.810Z,513.70
2018-07-15T21:29:59.050Z,513.10
2018-07-15T21:32:26.282Z,519.07
2018-07-15T21:34:53.829Z,514.80
2018-07-15T21:37:21.129Z,515.20
2018-07-15T21:39:48.379Z,514.87
2018-07-15T21:42:15.618Z,519.77
2018-07-15T21:44:42.865Z,515.70
2018-07-15T21:47:10.081Z,516.73
2018-07-15T21:49:37.319Z,517.27
2018-07-15T21:52:04.557Z,521.03
2018-07-15T21:54:31.811Z,518.87
2018-07-15T21:56:59.045Z,516.97
2018-07-15T21:59:26.298Z,519.83
2018-07-15T22:01:53.559Z,516.73
2018-07-15T22:04:20.825Z,514.63
2018-07-15T22:06:59.658Z,517.30
2018-07-15T22:09:49.733Z,520.10
2018-07-15T22:12:16.985Z,514.90
2018-07-15T22:14:44.377Z,516.10
2018-07-15T22:17:11.610Z,514.93
2018-07-15T22:19:38.862Z,515.93
2018-07-15T22:22:06.151Z,519.33
2018-07-15T22:24:33.414Z,519.63
2018-07-15T22:27:00.655Z,516.07
2018-07-15T22:29:27.891Z,514.30
2018-07-15T22:31:55.117Z,514.70
2018-07-15T22:34:22.349Z,515.77
2018-07-15T22:36:49.575Z,516.40
2018-07-15T22:39:16.830Z,522.17
2018-07-15T22:41:44.101Z,521.63
2018-07-15T22:44:11.335Z,517.23
2018-07-15T22:46:38.571Z,515.93
2018-07-15T22:49:05.805Z,520.07
2018-07-15T22:51:33.093Z,519.80
2018-07-15T22:54:00.329Z,518.57
2018-07-15T22:56:27.557Z,516.63
2018-07-15T22:58:54.821Z,518.70
2018-07-15T23:01:22.089Z,519.57
2018-07-15T23:03:49.325Z,519.13
2018-07-15T23:06:18.014Z,517.47
2018-07-15T23:08:45.247Z,519.17
2018-07-15T23:11:12.490Z,517.00
2018-07-15T23:13:39.757Z,517.20
2018-07-15T23:16:07.314Z,517.63
2018-07-15T23:18:34.561Z,517.00
2018-07-15T23:21:01.855Z,518.20
2018-07-15T23:23:29.114Z,517.23
2018-07-15T23:25:56.354Z,518.03
2018-07-15T23:28:23.609Z,521.20
2018-07-15T23:30:50.873Z,516.83
2018-07-15T23:33:18.128Z,517.80
2018-07-15T23:35:45.378Z,518.90
2018-07-15T23:38:12.613Z,519.37
2018-07-15T23:40:39.879Z,516.57
2018-07-15T23:43:07.122Z,515.97
2018-07-15T23:45:35.211Z,517.40
2018-07-15T23:48:02.488Z,520.30
2018-07-15T23:50:29.815Z,521.67
2018-07-15T23:52:57.096Z,516.13
2018-07-15T23:55:24.569Z,520.53
2018-07-15T23:57:52.046Z,521.80
